sensor_id;sensor_type;location;lat;lon;timestamp;pressure;altitude;pressure_sealevel;temperature;humidity
73860;BME280;62197;51.632;13.700;2023-04-15T00:01:05;99114.75;;;6.76;100.00
73860;BME280;62197;51.632;13.700;2023-04-15T00:03:30;99112.38;;;6.79;100.00
73860;BME280;62197;51.632;13.700;2023-04-15T00:05:58;99104.38;;;6.78;100.00
73860;BME280;62197;51.632;13.700;2023-04-15T00:08:23;99111.53;;;6.79;100.00
73860;BME280;62197;51.632;13.700;2023-04-15T00:10:49;99105.47;;;6.77;100.00
73860;BME280;62197;51.632;13.700;2023-04-15T00:13:15;99102.72;;;6.77;100.00
73860;BME280;62197;51.632;13.700;2023-04-15T00:15:40;99099.25;;;6.81;100.00
73860;BME280;62197;51.632;13.700;2023-04-15T00:18:06;99100.91;;;6.82;100.00
73860;BME280;62197;51.632;13.700;2023-04-15T00:20:32;99095.56;;;6.76;100.00
73860;BME280;62197;51.632;13.700;2023-04-15T00:22:58;99097.56;;;6.80;100.00
73860;BME280;62197;51.632;13.700;2023-04-15T00:25:27;99098.16;;;6.82;100.00
73860;BME280;62197;51.632;13.700;2023-04-15T00:27:53;99095.94;;;6.79;100.00
73860;BME280;62197;51.632;13.700;2023-04-15T00:30:18;99099.56;;;6.85;100.00
73860;BME280;62197;51.632;13.700;2023-04-15T00:32:44;99089.78;;;6.89;100.00
73860;BME280;62197;51.632;13.700;2023-04-15T00:35:10;99089.78;;;6.89;100.00
73860;BME280;62197;51.632;13.700;2023-04-15T00:37:35;99095.25;;;6.89;100.00
73860;BME280;62197;51.632;13.700;2023-04-15T00:40:01;99088.41;;;6.91;100.00
73860;BME280;62197;51.632;13.700;2023-04-15T00:42:27;99091.72;;;6.93;100.00
73860;BME280;62197;51.632;13.700;2023-04-15T00:44:52;99093.41;;;6.94;100.00
73860;BME280;62197;51.632;13.700;2023-04-15T00:47:19;99092.25;;;6.90;100.00
73860;BME280;62197;51.632;13.700;2023-04-15T00:49:44;99086.94;;;6.84;100.00
73860;BME280;62197;51.632;13.700;2023-04-15T00:52:09;99077.13;;;6.88;100.00
73860;BME280;62197;51.632;13.700;2023-04-15T00:54:35;99087.25;;;6.87;100.00
73860;BME280;62197;51.632;13.700;2023-04-15T00:57:04;99075.22;;;6.88;100.00
73860;BME280;62197;51.632;13.700;2023-04-15T00:59:30;99095.84;;;6.91;100.00
73860;BME280;62197;51.632;13.700;2023-04-15T01:01:55;99078.59;;;6.95;100.00
73860;BME280;62197;51.632;13.700;2023-04-15T01:04:21;99066.47;;;6.91;100.00
73860;BME280;62197;51.632;13.700;2023-04-15T01:06:46;99081.44;;;7.00;100.00
73860;BME280;62197;51.632;13.700;2023-04-15T01:09:12;99075.13;;;7.00;100.00
73860;BME280;62197;51.632;13.700;2023-04-15T01:11:37;99069.09;;;7.03;100.00
73860;BME280;62197;51.632;13.700;2023-04-15T01:14:03;99061.72;;;7.03;100.00
73860;BME280;62197;51.632;13.700;2023-04-15T01:16:28;99061.22;;;7.06;100.00
73860;BME280;62197;51.632;13.700;2023-04-15T01:18:54;99067.78;;;7.05;100.00
73860;BME280;62197;51.632;13.700;2023-04-15T01:21:19;99070.53;;;7.05;100.00
73860;BME280;62197;51.632;13.700;2023-04-15T01:23:46;99065.94;;;7.11;100.00
73860;BME280;62197;51.632;13.700;2023-04-15T01:26:12;99063.44;;;7.09;100.00
73860;BME280;62197;51.632;13.700;2023-04-15T01:28:38;99065.09;;;7.10;100.00
73860;BME280;62197;51.632;13.700;2023-04-15T01:31:11;99067.63;;;7.12;100.00
73860;BME280;62197;51.632;13.700;2023-04-15T01:33:38;99063.78;;;7.13;100.00
73860;BME280;62197;51.632;13.700;2023-04-15T01:36:04;99057.72;;;7.11;100.00
73860;BME280;62197;51.632;13.700;2023-04-15T01:38:33;99065.69;;;7.12;100.00
73860;BME280;62197;51.632;13.700;2023-04-15T01:40:59;99068.50;;;7.17;100.00
73860;BME280;62197;51.632;13.700;2023-04-15T01:43:24;99069.09;;;7.19;100.00
73860;BME280;62197;51.632;13.700;2023-04-15T01:45:50;99063.59;;;7.19;100.00
73860;BME280;62197;51.632;13.700;2023-04-15T01:48:15;99063.06;;;7.22;100.00
73860;BME280;62197;51.632;13.700;2023-04-15T01:50:41;99064.66;;;7.18;100.00
73860;BME280;62197;51.632;13.700;2023-04-15T01:53:06;99058.16;;;7.24;100.00
73860;BME280;62197;51.632;13.700;2023-04-15T01:55:32;99060.91;;;7.24;100.00
73860;BME280;62197;51.632;13.700;2023-04-15T01:57:58;99054.09;;;7.27;100.00
73860;BME280;62197;51.632;13.700;2023-04-15T02:00:23;99052.75;;;7.29;100.00
73860;BME280;62197;51.632;13.700;2023-04-15T02:02:49;99046.69;;;7.27;100.00
73860;BME280;62197;51.632;13.700;2023-04-15T02:05:14;99043.97;;;7.27;100.00
73860;BME280;62197;51.632;13.700;2023-04-15T02:07:40;99058.56;;;7.33;100.00
73860;BME280;62197;51.632;13.700;2023-04-15T02:10:06;99044.75;;;7.28;100.00
73860;BME280;62197;51.632;13.700;2023-04-15T02:12:31;99058.03;;;7.36;100.00
73860;BME280;62197;51.632;13.700;2023-04-15T02:14:57;99043.75;;;7.34;100.00
73860;BME280;62197;51.632;13.700;2023-04-15T02:17:22;99053.41;;;7.37;100.00
73860;BME280;62197;51.632;13.700;2023-04-15T02:19:47;99041.41;;;7.43;100.00
73860;BME280;62197;51.632;13.700;2023-04-15T02:22:13;99037.25;;;7.40;100.00
73860;BME280;62197;51.632;13.700;2023-04-15T02:24:42;99048.53;;;7.44;100.00
73860;BME280;62197;51.632;13.700;2023-04-15T02:27:08;99044.72;;;7.45;100.00
73860;BME280;62197;51.632;13.700;2023-04-15T02:29:33;99033.44;;;7.41;100.00
73860;BME280;62197;51.632;13.700;2023-04-15T02:31:58;99043.88;;;7.44;100.00
73860;BME280;62197;51.632;13.700;2023-04-15T02:34:23;99043.63;;;7.46;100.00
73860;BME280;62197;51.632;13.700;2023-04-15T02:36:51;99035.38;;;7.46;100.00
73860;BME280;62197;51.632;13.700;2023-04-15T02:39:20;99040.88;;;7.46;100.00
73860;BME280;62197;51.632;13.700;2023-04-15T02:41:45;99040.38;;;7.49;100.00
73860;BME280;62197;51.632;13.700;2023-04-15T02:44:15;99036.53;;;7.50;100.00
73860;BME280;62197;51.632;13.700;2023-04-15T02:46:43;99034.06;;;7.48;100.00
73860;BME280;62197;51.632;13.700;2023-04-15T02:49:08;99041.53;;;7.53;100.00
73860;BME280;62197;51.632;13.700;2023-04-15T02:51:33;99039.59;;;7.53;100.00
73860;BME280;62197;51.632;13.700;2023-04-15T02:53:58;99037.69;;;7.54;100.00
73860;BME280;62197;51.632;13.700;2023-04-15T02:56:24;99034.38;;;7.52;100.00
73860;BME280;62197;51.632;13.700;2023-04-15T02:58:49;99034.50;;;7.62;100.00
73860;BME280;62197;51.632;13.700;2023-04-15T03:01:15;99037.75;;;7.59;100.00
73860;BME280;62197;51.632;13.700;2023-04-15T03:03:40;99044.59;;;7.56;100.00
73860;BME280;62197;51.632;13.700;2023-04-15T03:06:06;99038.22;;;7.51;100.00
73860;BME280;62197;51.632;13.700;2023-04-15T03:08:33;99049.50;;;7.54;100.00
73860;BME280;62197;51.632;13.700;2023-04-15T03:10:58;99052.09;;;7.66;100.00
73860;BME280;62197;51.632;13.700;2023-04-15T03:13:26;99046.81;;;7.59;100.00
73860;BME280;62197;51.632;13.700;2023-04-15T03:15:51;99037.22;;;7.62;100.00
73860;BME280;62197;51.632;13.700;2023-04-15T03:18:16;99045.47;;;7.62;100.00
73860;BME280;62197;51.632;13.700;2023-04-15T03:20:41;99035.31;;;7.62;100.00
73860;BME280;62197;51.632;13.700;2023-04-15T03:23:07;99034.22;;;7.63;100.00
73860;BME280;62197;51.632;13.700;2023-04-15T03:25:32;99045.50;;;7.67;100.00
73860;BME280;62197;51.632;13.700;2023-04-15T03:27:58;99049.66;;;7.69;100.00
73860;BME280;62197;51.632;13.700;2023-04-15T03:30:24;99032.88;;;7.66;100.00
73860;BME280;62197;51.632;13.700;2023-04-15T03:32:49;99042.28;;;7.70;100.00
73860;BME280;62197;51.632;13.700;2023-04-15T03:35:15;99040.94;;;7.72;100.00
73860;BME280;62197;51.632;13.700;2023-04-15T03:37:40;99032.44;;;7.74;100.00
73860;BME280;62197;51.632;13.700;2023-04-15T03:40:06;99032.94;;;7.71;100.00
73860;BME280;62197;51.632;13.700;2023-04-15T03:42:31;99037.34;;;7.72;100.00
73860;BME280;62197;51.632;13.700;2023-04-15T03:44:58;99027.97;;;7.68;100.00
73860;BME280;62197;51.632;13.700;2023-04-15T03:47:23;99028.84;;;7.73;100.00
73860;BME280;62197;51.632;13.700;2023-04-15T03:49:48;99035.50;;;7.77;100.00
73860;BME280;62197;51.632;13.700;2023-04-15T03:52:13;99033.03;;;7.81;100.00
73860;BME280;62197;51.632;13.700;2023-04-15T03:54:39;99025.56;;;7.76;100.00
73860;BME280;62197;51.632;13.700;2023-04-15T03:57:04;99029.72;;;7.79;100.00
73860;BME280;62197;51.632;13.700;2023-04-15T03:59:29;99033.31;;;7.79;100.00
73860;BME280;62197;51.632;13.700;2023-04-15T04:01:55;99033.03;;;7.81;100.00
73860;BME280;62197;51.632;13.700;2023-04-15T04:04:20;99024.25;;;7.79;100.00
73860;BME280;62197;51.632;13.700;2023-04-15T04:06:45;99028.13;;;7.83;100.00
73860;BME280;62197;51.632;13.700;2023-04-15T04:09:11;99029.41;;;7.75;100.00
73860;BME280;62197;51.632;13.700;2023-04-15T04:11:36;99036.38;;;7.83;100.00
73860;BME280;62197;51.632;13.700;2023-04-15T04:14:01;99038.53;;;7.81;100.00
73860;BME280;62197;51.632;13.700;2023-04-15T04:16:26;99043.00;;;7.87;100.00
73860;BME280;62197;51.632;13.700;2023-04-15T04:18:52;99034.16;;;7.80;100.00
73860;BME280;62197;51.632;13.700;2023-04-15T04:21:17;99037.50;;;7.87;100.00
73860;BME280;62197;51.632;13.700;2023-04-15T04:23:42;99043.00;;;7.87;100.00
73860;BME280;62197;51.632;13.700;2023-04-15T04:26:08;99044.16;;;7.91;100.00
73860;BME280;62197;51.632;13.700;2023-04-15T04:28:33;99039.16;;;7.88;100.00
73860;BME280;62197;51.632;13.700;2023-04-15T04:30:59;99046.31;;;7.89;100.00
73860;BME280;62197;51.632;13.700;2023-04-15T04:33:24;99045.78;;;7.92;100.00
73860;BME280;62197;51.632;13.700;2023-04-15T04:35:50;99046.94;;;7.96;100.00
73860;BME280;62197;51.632;13.700;2023-04-15T04:38:15;99041.13;;;7.92;100.00
73860;BME280;62197;51.632;13.700;2023-04-15T04:40:40;99049.97;;;7.99;100.00
73860;BME280;62197;51.632;13.700;2023-04-15T04:43:06;99048.06;;;8.00;100.00
73860;BME280;62197;51.632;13.700;2023-04-15T04:45:31;99041.75;;;7.99;100.00
73860;BME280;62197;51.632;13.700;2023-04-15T04:47:56;99033.28;;;8.01;100.00
73860;BME280;62197;51.632;13.700;2023-04-15T04:50:21;99045.91;;;8.02;100.00
73860;BME280;62197;51.632;13.700;2023-04-15T04:52:47;99032.72;;;8.04;100.00
73860;BME280;62197;51.632;13.700;2023-04-15T04:55:12;99041.03;;;8.09;100.00
73860;BME280;62197;51.632;13.700;2023-04-15T04:57:37;99041.28;;;8.07;100.00
73860;BME280;62197;51.632;13.700;2023-04-15T05:00:05;99032.53;;;8.10;100.00
73860;BME280;62197;51.632;13.700;2023-04-15T05:02:32;99043.00;;;8.13;100.00
73860;BME280;62197;51.632;13.700;2023-04-15T05:04:57;99046.00;;;8.12;100.00
73860;BME280;62197;51.632;13.700;2023-04-15T05:07:23;99039.41;;;8.13;100.00
73860;BME280;62197;51.632;13.700;2023-04-15T05:09:48;99049.31;;;8.14;100.00
73860;BME280;62197;51.632;13.700;2023-04-15T05:12:13;99039.66;;;8.11;100.00
73860;BME280;62197;51.632;13.700;2023-04-15T05:14:41;99049.94;;;8.21;100.00
73860;BME280;62197;51.632;13.700;2023-04-15T05:17:07;99043.56;;;8.15;100.00
73860;BME280;62197;51.632;13.700;2023-04-15T05:19:32;99044.97;;;8.18;100.00
73860;BME280;62197;51.632;13.700;2023-04-15T05:21:58;99043.44;;;8.27;100.00
73860;BME280;62197;51.632;13.700;2023-04-15T05:24:23;99047.84;;;8.28;100.00
73860;BME280;62197;51.632;13.700;2023-04-15T05:26:48;99036.84;;;8.28;100.00
73860;BME280;62197;51.632;13.700;2023-04-15T05:29:13;99044.53;;;8.26;100.00
73860;BME280;62197;51.632;13.700;2023-04-15T05:31:39;99048.41;;;8.30;100.00
73860;BME280;62197;51.632;13.700;2023-04-15T05:34:04;99049.00;;;8.32;100.00
73860;BME280;62197;51.632;13.700;2023-04-15T05:36:31;99047.28;;;8.26;100.00
73860;BME280;62197;51.632;13.700;2023-04-15T05:38:56;99055.06;;;8.34;100.00
73860;BME280;62197;51.632;13.700;2023-04-15T05:41:22;99049.78;;;8.33;100.00
73860;BME280;62197;51.632;13.700;2023-04-15T05:43:47;99059.47;;;8.40;100.00
73860;BME280;62197;51.632;13.700;2023-04-15T05:46:12;99056.50;;;8.42;100.00
73860;BME280;62197;51.632;13.700;2023-04-15T05:48:38;99056.44;;;8.37;100.00
73860;BME280;62197;51.632;13.700;2023-04-15T05:51:03;99061.66;;;8.38;100.00
73860;BME280;62197;51.632;13.700;2023-04-15T05:53:29;99063.34;;;8.39;100.00
73860;BME280;62197;51.632;13.700;2023-04-15T05:55:54;99062.00;;;8.42;100.00
73860;BME280;62197;51.632;13.700;2023-04-15T05:58:20;99065.53;;;8.42;100.00
73860;BME280;62197;51.632;13.700;2023-04-15T06:00:45;99073.28;;;8.45;100.00
73860;BME280;62197;51.632;13.700;2023-04-15T06:03:11;99068.09;;;8.49;100.00
73860;BME280;62197;51.632;13.700;2023-04-15T06:05:36;99066.19;;;8.49;100.00
73860;BME280;62197;51.632;13.700;2023-04-15T06:08:01;99078.31;;;8.53;100.00
73860;BME280;62197;51.632;13.700;2023-04-15T06:10:27;99076.06;;;8.50;100.00
73860;BME280;62197;51.632;13.700;2023-04-15T06:12:52;99074.50;;;8.59;100.00
73860;BME280;62197;51.632;13.700;2023-04-15T06:15:17;99077.03;;;8.66;100.00
73860;BME280;62197;51.632;13.700;2023-04-15T06:17:43;99073.97;;;8.62;100.00
73860;BME280;62197;51.632;13.700;2023-04-15T06:20:09;99080.59;;;8.61;100.00
73860;BME280;62197;51.632;13.700;2023-04-15T06:22:36;99086.38;;;8.65;100.00
73860;BME280;62197;51.632;13.700;2023-04-15T06:25:03;99084.41;;;8.60;100.00
73860;BME280;62197;51.632;13.700;2023-04-15T06:27:28;99088.84;;;8.61;100.00
73860;BME280;62197;51.632;13.700;2023-04-15T06:29:54;99087.16;;;8.60;100.00
73860;BME280;62197;51.632;13.700;2023-04-15T06:32:20;99091.03;;;8.64;100.00
73860;BME280;62197;51.632;13.700;2023-04-15T06:34:45;99096.28;;;8.66;100.00
73860;BME280;62197;51.632;13.700;2023-04-15T06:37:10;99088.28;;;8.64;100.00
73860;BME280;62197;51.632;13.700;2023-04-15T06:39:40;99087.72;;;8.62;100.00
73860;BME280;62197;51.632;13.700;2023-04-15T06:42:05;99103.13;;;8.63;100.00
73860;BME280;62197;51.632;13.700;2023-04-15T06:44:30;99092.13;;;8.63;100.00
73860;BME280;62197;51.632;13.700;2023-04-15T06:46:56;99091.06;;;8.69;100.00
73860;BME280;62197;51.632;13.700;2023-04-15T06:49:21;99097.13;;;8.66;100.00
73860;BME280;62197;51.632;13.700;2023-04-15T06:51:47;99104.25;;;8.67;100.00
73860;BME280;62197;51.632;13.700;2023-04-15T06:54:12;99098.50;;;8.69;100.00
73860;BME280;62197;51.632;13.700;2023-04-15T06:56:37;99104.81;;;8.69;100.00
73860;BME280;62197;51.632;13.700;2023-04-15T06:59:02;99101.03;;;8.75;100.00
73860;BME280;62197;51.632;13.700;2023-04-15T07:01:28;99096.56;;;8.69;100.00
73860;BME280;62197;51.632;13.700;2023-04-15T07:03:53;99110.09;;;8.71;100.00
73860;BME280;62197;51.632;13.700;2023-04-15T07:06:18;99110.28;;;8.64;100.00
73860;BME280;62197;51.632;13.700;2023-04-15T07:08:43;99106.50;;;8.70;100.00
73860;BME280;62197;51.632;13.700;2023-04-15T07:11:09;99110.84;;;8.61;100.00
73860;BME280;62197;51.632;13.700;2023-04-15T07:13:34;99117.53;;;8.75;100.00
73860;BME280;62197;51.632;13.700;2023-04-15T07:15:59;99119.69;;;8.68;100.00
73860;BME280;62197;51.632;13.700;2023-04-15T07:18:25;99118.00;;;8.67;100.00
73860;BME280;62197;51.632;13.700;2023-04-15T07:20:50;99125.22;;;8.73;100.00
73860;BME280;62197;51.632;13.700;2023-04-15T07:23:16;99126.88;;;8.74;100.00
73860;BME280;62197;51.632;13.700;2023-04-15T07:25:42;99112.00;;;8.70;100.00
73860;BME280;62197;51.632;13.700;2023-04-15T07:28:07;99126.88;;;8.74;100.00
73860;BME280;62197;51.632;13.700;2023-04-15T07:30:33;99131.00;;;8.77;100.00
73860;BME280;62197;51.632;13.700;2023-04-15T07:32:59;99126.06;;;8.74;100.00
73860;BME280;62197;51.632;13.700;2023-04-15T07:35:24;99131.00;;;8.77;100.00
73860;BME280;62197;51.632;13.700;2023-04-15T07:37:50;99133.53;;;8.78;100.00
73860;BME280;62197;51.632;13.700;2023-04-15T07:40:16;99136.84;;;8.80;100.00
73860;BME280;62197;51.632;13.700;2023-04-15T07:42:41;99127.41;;;8.71;100.00
73860;BME280;62197;51.632;13.700;2023-04-15T07:45:07;99127.19;;;8.78;100.00
73860;BME280;62197;51.632;13.700;2023-04-15T07:47:33;99128.53;;;8.75;100.00
73860;BME280;62197;51.632;13.700;2023-04-15T07:49:58;99140.66;;;8.79;100.00
73860;BME280;62197;51.632;13.700;2023-04-15T07:52:24;99133.22;;;8.75;100.00
73860;BME280;62197;51.632;13.700;2023-04-15T07:54:49;99139.53;;;8.75;100.00
73860;BME280;62197;51.632;13.700;2023-04-15T07:57:15;99142.59;;;8.79;100.00
73860;BME280;62197;51.632;13.700;2023-04-15T07:59:41;99142.84;;;8.77;100.00
73860;BME280;62197;51.632;13.700;2023-04-15T08:02:06;99153.91;;;8.82;100.00
73860;BME280;62197;51.632;13.700;2023-04-15T08:04:32;99149.50;;;8.81;100.00
73860;BME280;62197;51.632;13.700;2023-04-15T08:06:57;99157.47;;;8.83;100.00
73860;BME280;62197;51.632;13.700;2023-04-15T08:09:23;99149.22;;;8.83;100.00
73860;BME280;62197;51.632;13.700;2023-04-15T08:11:48;99150.41;;;8.92;100.00
73860;BME280;62197;51.632;13.700;2023-04-15T08:14:15;99154.31;;;8.96;100.00
73860;BME280;62197;51.632;13.700;2023-04-15T08:16:40;99162.03;;;8.99;100.00
73860;BME280;62197;51.632;13.700;2023-04-15T08:19:06;99152.06;;;8.93;100.00
73860;BME280;62197;51.632;13.700;2023-04-15T08:21:31;99162.59;;;9.01;100.00
73860;BME280;62197;51.632;13.700;2023-04-15T08:23:57;99157.28;;;8.89;100.00
73860;BME280;62197;51.632;13.700;2023-04-15T08:26:22;99167.06;;;9.49;100.00
73860;BME280;62197;51.632;13.700;2023-04-15T08:28:47;99173.94;;;9.46;100.00
73860;BME280;62197;51.632;13.700;2023-04-15T08:31:14;99174.72;;;9.37;100.00
73860;BME280;62197;51.632;13.700;2023-04-15T08:33:40;99174.16;;;9.40;100.00
73860;BME280;62197;51.632;13.700;2023-04-15T08:36:06;99173.41;;;9.49;100.00
73860;BME280;62197;51.632;13.700;2023-04-15T08:38:31;99179.69;;;9.45;100.00
73860;BME280;62197;51.632;13.700;2023-04-15T08:40:58;99182.84;;;9.22;100.00
73860;BME280;62197;51.632;13.700;2023-04-15T08:43:27;99178.72;;;9.24;100.00
73860;BME280;62197;51.632;13.700;2023-04-15T08:45:54;99188.50;;;9.42;100.00
73860;BME280;62197;51.632;13.700;2023-04-15T08:48:20;99191.38;;;9.62;100.00
73860;BME280;62197;51.632;13.700;2023-04-15T08:50:47;99185.91;;;9.67;100.00
73860;BME280;62197;51.632;13.700;2023-04-15T08:53:13;99192.53;;;9.71;100.00
73860;BME280;62197;51.632;13.700;2023-04-15T08:55:42;99199.09;;;9.60;100.00
73860;BME280;62197;51.632;13.700;2023-04-15T08:58:12;99203.41;;;9.51;100.00
73860;BME280;62197;51.632;13.700;2023-04-15T09:00:39;99205.09;;;9.52;100.00
73860;BME280;62197;51.632;13.700;2023-04-15T09:03:05;99205.94;;;9.52;100.00
73860;BME280;62197;51.632;13.700;2023-04-15T09:05:35;99213.25;;;9.83;100.00
73860;BME280;62197;51.632;13.700;2023-04-15T09:08:01;99199.41;;;9.68;100.00
73860;BME280;62197;51.632;13.700;2023-04-15T09:10:28;99202.00;;;9.43;100.00
73860;BME280;62197;51.632;13.700;2023-04-15T09:12:54;99209.09;;;9.34;100.00
73860;BME280;62197;51.632;13.700;2023-04-15T09:15:19;99206.84;;;9.31;100.00
73860;BME280;62197;51.632;13.700;2023-04-15T09:17:45;99211.97;;;9.54;100.00
73860;BME280;62197;51.632;13.700;2023-04-15T09:20:14;99214.00;;;9.64;100.00
73860;BME280;62197;51.632;13.700;2023-04-15T09:22:41;99221.31;;;9.48;100.00
73860;BME280;62197;51.632;13.700;2023-04-15T09:27:48;99221.22;;;9.75;100.00
73860;BME280;62197;51.632;13.700;2023-04-15T09:30:13;99231.59;;;9.63;100.00
73860;BME280;62197;51.632;13.700;2023-04-15T09:35:16;99235.50;;;9.30;100.00
73860;BME280;62197;51.632;13.700;2023-04-15T09:37:41;99234.44;;;9.73;100.00
73860;BME280;62197;51.632;13.700;2023-04-15T09:40:07;99234.28;;;9.53;100.00
73860;BME280;62197;51.632;13.700;2023-04-15T09:42:34;99238.06;;;9.42;100.00
73860;BME280;62197;51.632;13.700;2023-04-15T09:45:12;99243.94;;;9.55;100.00
73860;BME280;62197;51.632;13.700;2023-04-15T09:47:37;99240.00;;;9.83;100.00
73860;BME280;62197;51.632;13.700;2023-04-15T09:50:03;99240.53;;;9.80;100.00
73860;BME280;62197;51.632;13.700;2023-04-15T09:52:28;99253.72;;;9.78;100.00
73860;BME280;62197;51.632;13.700;2023-04-15T09:54:57;99250.75;;;9.84;100.00
73860;BME280;62197;51.632;13.700;2023-04-15T09:57:23;99252.84;;;9.67;100.00
73860;BME280;62197;51.632;13.700;2023-04-15T09:59:49;99256.97;;;9.65;100.00
73860;BME280;62197;51.632;13.700;2023-04-15T10:02:14;99259.41;;;9.61;100.00
73860;BME280;62197;51.632;13.700;2023-04-15T10:04:40;99257.97;;;9.54;100.00
73860;BME280;62197;51.632;13.700;2023-04-15T10:07:06;99258.88;;;9.64;100.00
73860;BME280;62197;51.632;13.700;2023-04-15T10:09:34;99255.53;;;9.57;100.00
73860;BME280;62197;51.632;13.700;2023-04-15T10:12:02;99264.63;;;9.58;100.00
73860;BME280;62197;51.632;13.700;2023-04-15T10:14:32;99271.88;;;9.69;100.00
73860;BME280;62197;51.632;13.700;2023-04-15T10:17:00;99261.81;;;9.53;100.00
73860;BME280;62197;51.632;13.700;2023-04-15T10:19:30;99280.72;;;9.39;100.00
73860;BME280;62197;51.632;13.700;2023-04-15T10:21:57;99285.19;;;9.14;100.00
73860;BME280;62197;51.632;13.700;2023-04-15T10:24:23;99271.56;;;9.02;100.00
73860;BME280;62197;51.632;13.700;2023-04-15T10:26:50;99285.06;;;9.03;100.00
73860;BME280;62197;51.632;13.700;2023-04-15T10:29:16;99291.72;;;9.07;100.00
73860;BME280;62197;51.632;13.700;2023-04-15T10:31:41;99291.38;;;9.04;100.00
73860;BME280;62197;51.632;13.700;2023-04-15T10:34:08;99293.34;;;9.03;100.00
73860;BME280;62197;51.632;13.700;2023-04-15T10:36:33;99296.50;;;9.17;100.00
73860;BME280;62197;51.632;13.700;2023-04-15T10:38:58;99301.16;;;9.17;100.00
73860;BME280;62197;51.632;13.700;2023-04-15T10:41:24;99302.50;;;9.14;100.00
73860;BME280;62197;51.632;13.700;2023-04-15T10:43:52;99304.22;;;9.20;100.00
73860;BME280;62197;51.632;13.700;2023-04-15T10:46:23;99299.56;;;9.21;100.00
73860;BME280;62197;51.632;13.700;2023-04-15T10:48:51;99309.78;;;9.25;100.00
73860;BME280;62197;51.632;13.700;2023-04-15T10:51:25;99298.78;;;9.25;100.00
73860;BME280;62197;51.632;13.700;2023-04-15T10:53:55;99304.16;;;9.42;100.00
73860;BME280;62197;51.632;13.700;2023-04-15T10:56:21;99308.69;;;9.58;100.00
73860;BME280;62197;51.632;13.700;2023-04-15T10:58:47;99307.09;;;9.67;100.00
73860;BME280;62197;51.632;13.700;2023-04-15T11:01:12;99313.28;;;9.84;100.00
73860;BME280;62197;51.632;13.700;2023-04-15T11:03:38;99318.28;;;9.87;100.00
73860;BME280;62197;51.632;13.700;2023-04-15T11:06:05;99321.06;;;9.92;100.00
73860;BME280;62197;51.632;13.700;2023-04-15T11:08:54;99323.84;;;9.97;100.00
73860;BME280;62197;51.632;13.700;2023-04-15T11:11:20;99321.63;;;9.89;100.00
73860;BME280;62197;51.632;13.700;2023-04-15T11:13:49;99327.13;;;9.89;100.00
73860;BME280;62197;51.632;13.700;2023-04-15T11:16:15;99342.66;;;10.05;100.00
73860;BME280;62197;51.632;13.700;2023-04-15T11:18:41;99335.88;;;10.18;100.00
73860;BME280;62197;51.632;13.700;2023-04-15T11:21:07;99338.94;;;10.26;100.00
73860;BME280;62197;51.632;13.700;2023-04-15T11:23:34;99338.44;;;10.29;100.00
73860;BME280;62197;51.632;13.700;2023-04-15T11:26:01;99344.25;;;10.38;100.00
73860;BME280;62197;51.632;13.700;2023-04-15T11:28:30;99344.78;;;10.30;100.00
73860;BME280;62197;51.632;13.700;2023-04-15T11:30:56;99348.47;;;10.50;100.00
73860;BME280;62197;51.632;13.700;2023-04-15T11:33:23;99346.56;;;10.51;100.00
73860;BME280;62197;51.632;13.700;2023-04-15T11:35:49;99360.00;;;10.42;100.00
73860;BME280;62197;51.632;13.700;2023-04-15T11:38:15;99359.00;;;10.58;100.00
73860;BME280;62197;51.632;13.700;2023-04-15T11:40:44;99362.28;;;10.50;100.00
73860;BME280;62197;51.632;13.700;2023-04-15T11:43:20;99349.97;;;10.21;100.00
73860;BME280;62197;51.632;13.700;2023-04-15T11:45:54;99372.66;;;10.33;100.00
73860;BME280;62197;51.632;13.700;2023-04-15T11:48:22;99370.41;;;10.30;100.00
73860;BME280;62197;51.632;13.700;2023-04-15T11:50:56;99377.56;;;10.26;100.00
73860;BME280;62197;51.632;13.700;2023-04-15T11:53:21;99386.31;;;10.18;100.00
73860;BME280;62197;51.632;13.700;2023-04-15T11:55:49;99384.97;;;10.21;100.00
73860;BME280;62197;51.632;13.700;2023-04-15T11:58:23;99387.22;;;10.24;100.00
73860;BME280;62197;51.632;13.700;2023-04-15T12:00:59;99377.09;;;10.39;100.00
73860;BME280;62197;51.632;13.700;2023-04-15T12:03:29;99382.72;;;10.59;100.00
73860;BME280;62197;51.632;13.700;2023-04-15T12:08:51;99396.78;;;11.15;100.00
73860;BME280;62197;51.632;13.700;2023-04-15T12:11:18;99397.97;;;11.54;100.00
73860;BME280;62197;51.632;13.700;2023-04-15T12:13:47;99393.50;;;11.33;100.00
73860;BME280;62197;51.632;13.700;2023-04-15T12:16:17;99405.06;;;11.15;100.00
73860;BME280;62197;51.632;13.700;2023-04-15T12:18:47;99391.81;;;11.22;100.00
73860;BME280;62197;51.632;13.700;2023-04-15T12:21:15;99396.56;;;11.41;100.00
73860;BME280;62197;51.632;13.700;2023-04-15T12:23:53;99399.06;;;11.43;100.00
73860;BME280;62197;51.632;13.700;2023-04-15T12:26:32;99405.09;;;11.35;100.00
73860;BME280;62197;51.632;13.700;2023-04-15T12:29:01;99412.56;;;11.34;100.00
73860;BME280;62197;51.632;13.700;2023-04-15T12:31:27;99408.44;;;11.32;100.00
73860;BME280;62197;51.632;13.700;2023-04-15T12:33:56;99409.56;;;11.56;100.00
73860;BME280;62197;51.632;13.700;2023-04-15T12:36:22;99413.50;;;11.75;100.00
73860;BME280;62197;51.632;13.700;2023-04-15T12:38:48;99411.88;;;12.19;100.00
73860;BME280;62197;51.632;13.700;2023-04-15T12:41:13;99434.41;;;12.92;100.00
73860;BME280;62197;51.632;13.700;2023-04-15T12:43:44;99420.34;;;12.78;100.00
73860;BME280;62197;51.632;13.700;2023-04-15T12:46:09;99425.13;;;12.42;100.00
73860;BME280;62197;51.632;13.700;2023-04-15T12:48:35;99423.44;;;12.51;100.00
73860;BME280;62197;51.632;13.700;2023-04-15T12:51:00;99425.13;;;12.42;100.00